Time;durP1;ratioP1;P1;durP2;ratioP2;P2;SDS_P1;SDS_P2;PMS_P1;PMS_P2;Temp;Humidity;BMP_temperature;BMP_pressure;BME280_temperature;BME280_humidity;BME280_pressure;Samples;Min_cycle;Max_cycle;Signal;HPM_P1;HPM_P2
2022/05/15 00:01:29;;;;;;;19.02;6.22;;;;;;;16.75;52.43;101951.31;5093493;28;20036;-62
2022/05/15 00:03:54;;;;;;;26.58;6.68;;;;;;;16.66;52.76;101946.81;5093165;28;20028;-62
2022/05/15 00:06:20;;;;;;;23.05;6.15;;;;;;;16.60;52.99;101943.22;5093096;28;20077;-61
2022/05/15 00:08:45;;;;;;;19.00;6.10;;;;;;;16.47;53.22;101939.59;5092821;28;20036;-62
2022/05/15 00:11:16;;;;;;;23.88;5.85;;;;;;;16.50;52.97;101936.97;5092858;28;20028;-62
2022/05/15 00:13:41;;;;;;;26.38;6.45;;;;;;;16.55;52.93;101935.19;5093055;28;20024;-62
2022/05/15 00:16:07;;;;;;;19.13;6.03;;;;;;;16.59;52.74;101937.00;5092991;28;20054;-61
2022/05/15 00:18:32;;;;;;;19.38;6.32;;;;;;;16.54;52.66;101933.41;5093010;28;20039;-61
2022/05/15 00:20:58;;;;;;;20.70;6.10;;;;;;;16.52;52.62;101941.41;5092914;28;20032;-61
2022/05/15 00:23:24;;;;;;;24.08;6.32;;;;;;;16.47;52.82;101931.59;5092928;28;20024;-61
2022/05/15 00:25:50;;;;;;;22.65;6.05;;;;;;;16.41;53.24;101935.16;5092796;28;20028;-64
2022/05/15 00:28:16;;;;;;;23.30;6.30;;;;;;;16.32;53.45;101926.22;5092823;28;20039;-62
2022/05/15 00:30:42;;;;;;;23.70;6.40;;;;;;;16.30;53.18;101928.88;5092768;28;20032;-62
2022/05/15 00:33:07;;;;;;;18.70;5.85;;;;;;;16.20;53.65;101921.72;5093078;28;20029;-62
2022/05/15 00:35:35;;;;;;;20.67;6.00;;;;;;;16.14;54.12;101933.22;5093058;28;20028;-62
2022/05/15 00:38:04;;;;;;;21.33;6.13;;;;;;;16.13;54.10;101928.78;5092768;28;20028;-62
2022/05/15 00:40:30;;;;;;;22.35;6.03;;;;;;;16.06;54.12;101923.41;5095525;28;20036;-61
2022/05/15 00:42:55;;;;;;;22.95;6.25;;;;;;;16.03;54.10;101919.84;5096506;28;20024;-62
2022/05/15 00:45:22;;;;;;;23.63;5.95;;;;;;;16.07;54.19;101922.53;5096432;28;20461;-62
2022/05/15 00:47:48;;;;;;;24.63;6.43;;;;;;;16.01;54.28;101926.03;5096423;28;20028;-62
2022/05/15 00:50:27;;;;;;;22.77;6.20;;;;;;;15.96;54.19;101920.69;5096453;28;20085;-62
2022/05/15 00:52:58;;;;;;;24.50;6.18;;;;;;;15.98;54.25;101920.72;5096358;28;20556;-62
2022/05/15 00:55:42;;;;;;;21.88;5.72;;;;;;;15.97;53.98;101919.84;5096297;28;20393;-62
2022/05/15 00:58:17;;;;;;;24.50;5.60;;;;;;;15.88;54.56;101925.06;5096353;28;20039;-61
2022/05/15 01:00:43;;;;;;;22.85;5.68;;;;;;;15.96;54.31;101919.81;5096293;28;20028;-61
2022/05/15 01:03:17;;;;;;;21.50;6.00;;;;;;;15.92;54.42;101918.88;5096194;28;20046;-62
2022/05/15 01:05:45;;;;;;;21.48;5.68;;;;;;;15.92;54.78;101923.31;5095972;28;20085;-62
2022/05/15 01:08:11;;;;;;;23.27;6.22;;;;;;;15.86;54.57;101916.19;5096004;28;20425;-61
2022/05/15 01:10:41;;;;;;;25.20;5.70;;;;;;;15.89;54.46;101918.00;5095915;28;20074;-61
2022/05/15 01:13:09;;;;;;;21.05;6.07;;;;;;;15.89;54.49;101920.66;5095986;28;20074;-62
2022/05/15 01:15:36;;;;;;;24.50;5.97;;;;;;;15.91;54.36;101925.09;5095962;28;20074;-62
2022/05/15 01:18:02;;;;;;;23.08;5.80;;;;;;;15.94;54.35;101919.81;5077732;28;20055;-61
2022/05/15 01:20:29;;;;;;;24.15;6.15;;;;;;;15.91;54.27;101921.56;5095638;28;20442;-62
2022/05/15 01:22:54;;;;;;;26.75;6.22;;;;;;;15.91;54.28;101925.09;5095744;28;20027;-62
2022/05/15 01:25:26;;;;;;;19.75;6.05;;;;;;;15.91;54.58;101924.22;5095758;28;20046;-61
2022/05/15 01:28:01;;;;;;;22.85;5.78;;;;;;;15.88;54.66;101925.06;5095574;28;20393;-61
2022/05/15 01:30:28;;;;;;;20.73;6.38;;;;;;;15.82;54.65;101925.06;5095627;28;20059;-61
2022/05/15 01:32:54;;;;;;;22.33;5.80;;;;;;;15.87;54.66;101928.63;5095540;28;20032;-62
2022/05/15 01:35:19;;;;;;;27.55;6.22;;;;;;;15.84;54.72;101927.72;5095445;28;20065;-61
2022/05/15 01:37:45;;;;;;;30.23;6.07;;;;;;;15.78;55.09;101924.13;5095519;28;20027;-61
2022/05/15 01:40:11;;;;;;;24.05;6.47;;;;;;;15.80;55.08;101923.25;5095491;28;20107;-61
2022/05/15 01:42:37;;;;;;;23.85;5.97;;;;;;;15.81;54.96;101923.28;5095400;28;20085;-62
2022/05/15 01:45:03;;;;;;;23.67;6.45;;;;;;;15.75;55.31;101924.09;5095266;28;20106;-62
2022/05/15 01:47:29;;;;;;;26.60;6.35;;;;;;;15.71;55.54;101924.06;5095186;28;20085;-62
2022/05/15 01:49:54;;;;;;;25.48;6.00;;;;;;;15.72;55.12;101910.78;5095034;28;20478;-62
2022/05/15 01:52:19;;;;;;;18.42;6.30;;;;;;;15.72;55.19;101918.78;5095181;28;20067;-61
2022/05/15 01:54:45;;;;;;;18.63;5.50;;;;;;;15.76;55.16;101920.59;5095298;28;20013;-62
2022/05/15 01:57:10;;;;;;;24.10;5.97;;;;;;;15.75;55.18;101923.22;5095182;28;20153;-61
2022/05/15 01:59:36;;;;;;;20.80;6.05;;;;;;;15.76;55.53;101917.91;5095033;28;20499;-61
2022/05/15 02:02:01;;;;;;;21.63;6.00;;;;;;;15.76;55.47;101917.03;5094989;28;20078;-62
2022/05/15 02:04:27;;;;;;;18.98;5.90;;;;;;;15.74;55.17;101919.66;5094880;28;20047;-62
2022/05/15 02:06:52;;;;;;;25.48;6.55;;;;;;;15.75;55.31;101918.78;5076672;28;20028;-61
2022/05/15 02:09:17;;;;;;;21.30;5.95;;;;;;;15.68;55.37;101910.75;5094617;28;20079;-61
2022/05/15 02:11:43;;;;;;;22.63;6.10;;;;;;;15.65;55.56;101911.63;5095112;28;20102;-61
2022/05/15 02:14:08;;;;;;;27.00;6.22;;;;;;;15.62;55.44;101900.91;5094707;28;20034;-61
2022/05/15 02:16:33;;;;;;;18.52;5.50;;;;;;;15.64;55.57;101906.25;5094758;28;20024;-61
2022/05/15 02:18:59;;;;;;;22.45;6.03;;;;;;;15.54;55.73;101899.94;5095096;28;20110;-62
2022/05/15 02:21:24;;;;;;;19.30;6.10;;;;;;;15.55;55.47;101909.75;5095537;28;20020;-61
2022/05/15 02:23:50;;;;;;;24.40;6.25;;;;;;;15.52;55.83;101912.38;5095224;28;20028;-61
2022/05/15 02:26:15;;;;;;;21.83;5.65;;;;;;;15.45;56.17;101911.44;5095113;28;20030;-61
2022/05/15 02:28:41;;;;;;;19.90;5.55;;;;;;;15.38;56.27;101911.41;5094474;28;20461;-61
2022/05/15 02:31:06;;;;;;;25.38;6.32;;;;;;;15.31;56.57;101906.88;5094519;28;20020;-61
2022/05/15 02:33:33;;;;;;;25.63;6.05;;;;;;;15.32;56.80;101919.31;5094447;28;20081;-61
2022/05/15 02:35:58;;;;;;;16.23;5.68;;;;;;;15.28;56.76;101926.38;5094207;28;20508;-62
2022/05/15 02:38:24;;;;;;;23.73;6.00;;;;;;;15.35;56.49;101928.22;5094285;28;20024;-61
2022/05/15 02:40:50;;;;;;;17.88;5.50;;;;;;;15.32;56.55;101913.97;5094344;28;20138;-62
2022/05/15 02:43:15;;;;;;;26.50;6.25;;;;;;;15.32;56.49;101906.00;5094443;28;20052;-61
2022/05/15 02:45:40;;;;;;;18.58;5.32;;;;;;;15.30;56.57;101905.09;5094164;28;20031;-62
2022/05/15 02:51:03;;;;;;;24.13;5.90;;;;;;;15.20;56.71;101910.34;5094075;28;20052;-61
2022/05/15 02:51:03;;;;;;;23.13;5.70;;;;;;;15.20;56.67;101905.03;5093859;28;20109;-62
2022/05/15 02:53:29;;;;;;;21.92;6.00;;;;;;;15.16;56.82;101900.56;5094087;28;20028;-61
2022/05/15 02:55:54;;;;;;;20.55;5.82;;;;;;;15.15;56.82;101901.41;5094093;28;20031;-61
2022/05/15 02:58:20;;;;;;;20.48;5.22;;;;;;;15.08;57.54;101898.72;5094027;28;20101;-62
2022/05/15 03:00:45;;;;;;;22.48;6.03;;;;;;;15.05;57.33;101896.91;5093891;28;20073;-61
2022/05/15 03:03:10;;;;;;;25.67;5.95;;;;;;;15.00;57.40;101896.84;5093330;28;20023;-62
2022/05/15 03:05:37;;;;;;;25.98;6.32;;;;;;;14.96;57.87;101896.81;5093732;28;20491;-61
2022/05/15 03:08:02;;;;;;;22.35;5.45;;;;;;;14.91;58.29;101893.22;5093698;28;20465;-61
2022/05/15 03:10:29;;;;;;;23.75;5.93;;;;;;;14.88;58.16;101899.41;5093529;28;20050;-61
2022/05/15 03:12:54;;;;;;;21.50;6.28;;;;;;;14.78;57.93;101879.78;5093747;28;20046;-62
2022/05/15 03:15:20;;;;;;;17.38;5.50;;;;;;;14.75;58.33;101894.81;5093754;28;20048;-61
2022/05/15 03:17:46;;;;;;;21.60;5.85;;;;;;;14.71;58.68;101895.66;5093853;28;20059;-61
2022/05/15 03:20:15;;;;;;;21.48;5.60;;;;;;;14.70;58.70;101889.47;5093519;28;20106;-62
2022/05/15 03:22:41;;;;;;;19.55;6.07;;;;;;;14.69;59.03;101900.09;5093813;28;20596;-61
2022/05/15 03:25:07;;;;;;;19.60;5.95;;;;;;;14.64;58.90;101891.16;5093500;28;20103;-61
2022/05/15 03:27:33;;;;;;;24.48;6.00;;;;;;;14.62;59.23;101893.81;5093565;28;20024;-62
2022/05/15 03:29:58;;;;;;;18.40;5.38;;;;;;;14.56;59.27;101898.16;5093419;28;20031;-61
2022/05/15 03:32:24;;;;;;;21.13;5.88;;;;;;;14.58;59.22;101896.41;5093463;28;20420;-62
2022/05/15 03:34:49;;;;;;;20.35;6.10;;;;;;;14.57;59.22;101895.53;5093414;28;20020;-62
2022/05/15 03:37:14;;;;;;;23.35;6.25;;;;;;;14.54;58.93;101892.81;5093405;28;20051;-61
2022/05/15 03:39:40;;;;;;;21.98;5.55;;;;;;;14.49;59.08;101889.22;5093283;28;20099;-61
2022/05/15 03:42:05;;;;;;;22.48;5.63;;;;;;;14.48;59.31;101892.72;5093208;28;20024;-61
2022/05/15 03:44:31;;;;;;;21.02;6.18;;;;;;;14.44;59.51;101882.94;5092875;28;20031;-62
2022/05/15 03:46:56;;;;;;;24.10;5.93;;;;;;;14.45;59.42;101882.94;5092743;28;20027;-62
2022/05/15 03:49:21;;;;;;;26.48;6.15;;;;;;;14.40;60.11;101879.34;5092800;28;20077;-61
2022/05/15 03:51:47;;;;;;;24.27;6.40;;;;;;;14.47;59.80;101883.88;5092533;28;20036;-61
2022/05/15 03:54:12;;;;;;;21.48;5.80;;;;;;;14.48;59.60;101885.69;5092819;28;20109;-61
2022/05/15 03:56:50;;;;;;;25.50;6.00;;;;;;;14.52;59.46;101894.59;5092573;28;20412;-61
2022/05/15 03:59:29;;;;;;;25.50;6.00;;;;;;;14.51;59.13;101890.13;5076319;28;20080;-61
2022/05/15 04:01:54;;;;;;;21.40;6.35;;;;;;;14.52;59.25;101884.84;5092617;28;20028;-61
2022/05/15 04:04:20;;;;;;;23.20;5.75;;;;;;;14.56;59.27;101895.50;5092367;28;20038;-61
2022/05/15 04:06:46;;;;;;;26.73;6.40;;;;;;;14.54;59.45;101879.53;5074382;28;20116;-61
2022/05/15 04:09:11;;;;;;;25.33;5.70;;;;;;;14.53;59.50;101883.06;5092227;28;20193;-61
2022/05/15 04:11:37;;;;;;;22.40;6.47;;;;;;;14.47;59.49;101890.94;5092414;28;20069;-61
2022/05/15 04:14:02;;;;;;;23.33;6.32;;;;;;;14.43;59.83;101895.34;5092924;28;20028;-61
2022/05/15 04:16:28;;;;;;;26.17;5.80;;;;;;;14.43;59.83;101897.09;5096486;28;20052;-62
2022/05/15 04:18:55;;;;;;;27.35;6.25;;;;;;;14.44;59.79;101893.56;5096424;28;20066;-61
2022/05/15 04:21:20;;;;;;;22.83;6.20;;;;;;;14.40;59.93;101902.38;5096356;28;20027;-61
2022/05/15 04:23:45;;;;;;;24.15;6.28;;;;;;;14.43;60.02;101900.66;5096275;28;20024;-61
2022/05/15 04:26:11;;;;;;;20.60;5.78;;;;;;;14.51;59.94;101906.97;5078031;28;20024;-61
2022/05/15 04:28:36;;;;;;;22.98;5.72;;;;;;;14.58;59.60;101907.06;5096107;28;20122;-61
2022/05/15 04:31:02;;;;;;;27.17;6.15;;;;;;;14.54;59.85;101900.81;5096261;28;20032;-61
2022/05/15 04:33:28;;;;;;;21.90;6.15;;;;;;;14.50;59.65;101902.53;5096220;28;20032;-62
2022/05/15 04:35:54;;;;;;;23.35;6.22;;;;;;;14.49;59.73;101905.19;5095984;28;20039;-62
2022/05/15 04:38:19;;;;;;;20.88;6.28;;;;;;;14.50;59.75;101902.53;5096051;28;20132;-61
2022/05/15 04:40:44;;;;;;;19.92;6.00;;;;;;;14.50;59.90;101902.53;5096035;28;20110;-61
2022/05/15 04:43:10;;;;;;;20.85;5.90;;;;;;;14.52;59.69;101892.81;5095959;28;20034;-62
2022/05/15 04:45:36;;;;;;;21.83;5.80;;;;;;;14.56;59.69;101896.41;5095811;28;20389;-61
2022/05/15 04:48:01;;;;;;;21.83;5.97;;;;;;;14.50;59.75;101886.56;5095844;28;20398;-62
2022/05/15 04:50:27;;;;;;;28.55;6.07;;;;;;;14.58;59.95;101897.31;5095664;28;20552;-61
2022/05/15 04:52:52;;;;;;;24.65;5.97;;;;;;;14.65;59.79;101898.28;5095919;28;20049;-62
2022/05/15 04:55:17;;;;;;;25.48;6.50;;;;;;;14.59;59.97;101887.56;5095677;28;20028;-61
2022/05/15 04:57:43;;;;;;;20.58;6.10;;;;;;;14.61;60.05;101892.03;5095550;28;20035;-62
2022/05/15 05:00:14;;;;;;;20.35;6.40;;;;;;;14.65;60.45;101884.97;5095553;28;20115;-62
2022/05/15 05:02:39;;;;;;;25.65;6.55;;;;;;;14.72;59.93;101892.13;5095430;28;20361;-61
2022/05/15 05:05:05;;;;;;;22.80;6.70;;;;;;;14.78;59.87;101893.09;5095436;28;20024;-61
2022/05/15 05:07:31;;;;;;;27.02;7.13;;;;;;;14.83;59.73;101898.47;5095435;28;20024;-61
2022/05/15 05:09:57;;;;;;;23.42;6.97;;;;;;;14.89;59.67;101900.28;5095301;28;20600;-62
2022/05/15 05:12:23;;;;;;;18.33;6.00;;;;;;;15.03;59.46;101904.88;5095271;28;20024;-62
2022/05/15 05:14:48;;;;;;;21.83;6.40;;;;;;;15.09;59.55;101905.81;5095291;28;20519;-62
2022/05/15 05:17:14;;;;;;;23.25;6.65;;;;;;;15.09;59.38;101898.72;5095260;28;20016;-61
2022/05/15 05:19:40;;;;;;;23.75;6.72;;;;;;;15.21;59.14;101901.47;5095452;28;20024;-61
2022/05/15 05:22:05;;;;;;;28.05;6.38;;;;;;;15.36;59.13;101903.38;5095014;28;20064;-61
2022/05/15 05:24:31;;;;;;;27.73;7.05;;;;;;;15.44;58.55;101908.75;5095151;28;20047;-61
2022/05/15 05:26:57;;;;;;;19.50;6.63;;;;;;;15.47;58.62;101912.34;5095143;28;20028;-60
2022/05/15 05:29:22;;;;;;;20.17;6.53;;;;;;;15.56;58.69;101905.31;5094958;28;20097;-61
2022/05/15 05:31:48;;;;;;;30.92;6.82;;;;;;;15.61;58.36;101900.91;5095092;28;20043;-61
2022/05/15 05:34:14;;;;;;;24.52;6.88;;;;;;;15.73;57.90;101898.34;5095010;28;20028;-62
2022/05/15 05:36:39;;;;;;;24.80;6.38;;;;;;;15.86;58.17;101901.97;5094785;28;20069;-62
2022/05/15 05:39:05;;;;;;;18.65;6.60;;;;;;;15.97;57.79;101902.91;5096097;28;20084;-62
2022/05/15 05:41:30;;;;;;;27.50;7.45;;;;;;;16.06;57.53;101895.00;5095869;28;20032;-61
2022/05/15 05:43:55;;;;;;;20.15;6.70;;;;;;;16.13;57.21;101886.13;5095171;28;20028;-61
2022/05/15 05:46:21;;;;;;;29.50;6.63;;;;;;;16.31;56.05;101897.75;5095019;28;20035;-61
2022/05/15 05:48:47;;;;;;;24.80;6.40;;;;;;;16.44;56.32;101899.56;5094738;28;20098;-61
2022/05/15 05:51:13;;;;;;;25.92;7.10;;;;;;;16.48;56.41;101896.91;5094657;28;20035;-62
2022/05/15 05:53:39;;;;;;;23.30;7.38;;;;;;;16.69;56.10;101901.44;5094583;28;20066;-61
2022/05/15 05:56:09;;;;;;;22.02;6.55;;;;;;;16.84;55.76;101895.28;5094584;28;20430;-61
2022/05/15 05:58:35;;;;;;;22.95;6.97;;;;;;;17.00;55.37;101893.50;5094612;28;20086;-61
2022/05/15 06:01:00;;;;;;;21.80;6.28;;;;;;;17.16;54.59;101897.97;5094782;28;20020;-61
2022/05/15 06:06:10;;;;;;;18.85;6.57;;;;;;;17.44;54.01;101900.66;5094352;28;20095;-62
2022/05/15 06:08:35;;;;;;;22.20;7.10;;;;;;;17.54;53.71;101889.06;5094062;28;20032;-61
2022/05/15 06:11:01;;;;;;;20.13;7.07;;;;;;;17.69;52.92;101894.38;5094527;28;20074;-61
2022/05/15 06:13:26;;;;;;;23.42;6.53;;;;;;;17.88;53.19;101897.94;5094147;28;20035;-61
2022/05/15 06:15:53;;;;;;;18.42;6.72;;;;;;;18.08;52.36;101899.66;5094142;28;20051;-61
2022/05/15 06:18:18;;;;;;;25.65;7.40;;;;;;;18.25;52.08;101895.16;5094212;28;20035;-61
2022/05/15 06:20:43;;;;;;;23.67;7.43;;;;;;;18.41;52.24;101895.94;5093869;28;20042;-62
2022/05/15 06:23:09;;;;;;;24.50;7.22;;;;;;;18.56;51.37;101895.88;5094034;28;20031;-61
2022/05/15 06:25:34;;;;;;;22.67;6.90;;;;;;;18.74;50.91;101902.94;5094216;28;20035;-61
2022/05/15 06:28:00;;;;;;;19.65;7.50;;;;;;;18.89;50.74;101892.16;5093941;28;20024;-61
2022/05/15 06:30:26;;;;;;;21.10;7.68;;;;;;;19.06;50.37;101899.13;5093698;28;20052;-61
2022/05/15 06:32:51;;;;;;;19.17;7.22;;;;;;;19.24;49.53;101899.91;5093834;28;20055;-62
2022/05/15 06:35:17;;;;;;;21.83;7.40;;;;;;;19.47;49.30;101897.00;5093702;28;20069;-62
2022/05/15 06:37:42;;;;;;;20.60;7.30;;;;;;;19.64;48.80;101894.22;5092876;28;20059;-61
2022/05/15 06:40:10;;;;;;;19.48;7.28;;;;;;;19.85;48.78;101892.22;5093697;28;20031;-61
2022/05/15 06:42:35;;;;;;;23.30;7.35;;;;;;;20.07;47.72;101883.00;5093796;28;20031;-61
2022/05/15 06:45:01;;;;;;;18.52;7.35;;;;;;;20.19;47.18;101893.59;5093656;28;20016;-60
2022/05/15 06:47:27;;;;;;;20.95;7.53;;;;;;;20.36;47.22;101890.69;5093610;28;20024;-60
2022/05/15 06:49:53;;;;;;;26.90;8.10;;;;;;;20.45;46.24;101889.69;5093513;28;20020;-62
2022/05/15 06:52:18;;;;;;;20.10;7.40;;;;;;;20.46;46.92;101889.66;5093591;28;20375;-62
2022/05/15 06:54:44;;;;;;;18.15;7.68;;;;;;;20.72;46.32;101892.00;5093479;28;20020;-61
2022/05/15 06:59:53;;;;;;;23.98;7.57;;;;;;;21.16;45.09;101887.75;5093523;28;20042;-61
2022/05/15 07:02:19;;;;;;;18.42;7.78;;;;;;;21.30;45.14;101887.53;5075238;28;20040;-62
2022/05/15 07:04:44;;;;;;;22.70;7.28;;;;;;;21.40;44.54;101881.09;5093140;28;20024;-62
2022/05/15 07:07:10;;;;;;;21.83;7.80;;;;;;;21.47;44.51;101890.84;5093384;28;20330;-61
2022/05/15 07:09:36;;;;;;;17.25;7.47;;;;;;;21.56;44.51;101889.78;5093337;28;20454;-61
2022/05/15 07:12:03;;;;;;;19.95;8.27;;;;;;;21.71;43.87;101891.28;5093264;28;20389;-61
2022/05/15 07:14:29;;;;;;;19.90;7.97;;;;;;;21.82;43.84;101891.09;5093291;28;20034;-61
2022/05/15 07:16:54;;;;;;;21.30;8.52;;;;;;;21.98;43.06;101898.84;5093083;28;20095;-61
2022/05/15 07:19:20;;;;;;;18.85;8.25;;;;;;;22.14;42.31;101890.47;5092973;28;20496;-61
2022/05/15 07:21:45;;;;;;;22.60;8.27;;;;;;;22.31;42.11;101895.50;5092912;28;20016;-61
2022/05/15 07:24:10;;;;;;;18.25;7.78;;;;;;;;;;5093130;28;20024;-61
2022/05/15 07:26:39;;;;;;;20.38;8.07;;;;;;;22.59;42.72;101893.13;5093201;28;20022;-61
2022/05/15 07:29:05;;;;;;;16.50;7.70;;;;;;;22.77;42.29;101899.88;5092772;28;20034;-61
2022/05/15 07:31:30;;;;;;;16.88;7.40;;;;;;;22.76;41.19;101907.09;5093200;28;20016;-61
2022/05/15 07:33:56;;;;;;;18.77;8.50;;;;;;;22.81;41.02;101909.69;5092932;28;20020;-61
2022/05/15 07:36:21;;;;;;;25.90;9.88;;;;;;;22.82;40.27;101904.25;5093305;28;20069;-61
2022/05/15 07:38:47;;;;;;;20.98;8.02;;;;;;;22.91;40.68;101903.16;5093007;28;20051;-62
2022/05/15 07:41:14;;;;;;;19.70;8.18;;;;;;;23.02;39.80;101902.94;5092815;28;20024;-60
2022/05/15 07:43:40;;;;;;;22.90;8.23;;;;;;;23.16;40.31;101896.25;5092800;28;20055;-61
2022/05/15 07:46:06;;;;;;;17.20;7.60;;;;;;;23.29;39.71;101896.84;5092729;28;20023;-61
2022/05/15 07:48:31;;;;;;;16.88;8.15;;;;;;;23.44;39.03;101891.06;5092733;28;20028;-60
2022/05/15 07:50:57;;;;;;;19.23;8.30;;;;;;;23.56;39.82;101894.38;5092444;28;20024;-61
2022/05/15 07:53:23;;;;;;;18.63;7.88;;;;;;;23.59;38.98;101887.06;5092690;28;20462;-61
2022/05/15 07:55:48;;;;;;;21.35;8.07;;;;;;;23.69;38.72;101885.06;5092786;28;20050;-61
2022/05/15 07:58:13;;;;;;;23.58;7.63;;;;;;;23.82;39.08;101877.50;5092583;28;20024;-61
2022/05/15 08:00:39;;;;;;;24.98;8.13;;;;;;;24.01;38.08;101878.75;5092601;28;20115;-62
2022/05/15 08:03:10;;;;;;;18.33;8.40;;;;;;;24.21;38.40;101887.16;5092421;28;20099;-61
2022/05/15 08:08:22;;;;;;;21.15;8.13;;;;;;;24.36;37.57;101884.91;5092772;28;20038;-61
2022/05/15 08:10:49;;;;;;;15.00;7.40;;;;;;;24.63;37.51;101886.81;5088150;28;20098;-62
2022/05/15 08:13:25;;;;;;;24.45;8.23;;;;;;;24.67;37.10;101880.38;5092515;28;20047;-61
2022/05/15 08:15:51;;;;;;;19.88;7.57;;;;;;;24.86;36.69;101879.78;5092497;28;20107;-62
2022/05/15 08:23:58;;;;;;;20.98;7.97;;;;;;;25.57;34.94;101872.94;5092599;28;20161;-61
2022/05/15 08:26:24;;;;;;;22.13;8.07;;;;;;;25.79;34.23;101856.81;5092420;28;20133;-62
2022/05/15 08:28:50;;;;;;;17.90;7.63;;;;;;;25.80;33.34;101861.28;5092340;28;20120;-62
2022/05/15 08:31:17;;;;;;;24.63;8.00;;;;;;;25.80;33.71;101850.47;5092546;28;20074;-61
2022/05/15 08:33:43;;;;;;;17.70;7.43;;;;;;;25.83;34.76;101858.47;5074427;28;20369;-61
2022/05/15 08:36:10;;;;;;;15.77;7.70;;;;;;;25.96;32.69;101860.66;5092340;28;20120;-62
2022/05/15 08:38:36;;;;;;;16.10;7.88;;;;;;;25.85;33.47;101849.34;5092343;28;20032;-61
2022/05/15 08:41:35;;;;;;;18.52;7.55;;;;;;;26.14;34.46;101847.38;5092280;28;20047;-61
2022/05/15 08:44:11;;;;;;;18.08;7.28;;;;;;;26.41;32.25;101842.69;5091729;28;20031;-61
2022/05/15 08:46:49;;;;;;;16.35;7.25;;;;;;;26.55;33.02;101839.44;5092419;28;20055;-61
2022/05/15 08:49:15;;;;;;;20.83;7.55;;;;;;;26.82;31.15;101835.63;5092608;28;20326;-62
2022/05/15 08:51:57;;;;;;;14.95;6.63;;;;;;;26.98;31.18;101830.47;5092461;28;20487;-61
2022/05/15 08:54:23;;;;;;;21.38;7.75;;;;;;;26.84;30.52;101833.72;5092060;28;20442;-62
2022/05/15 08:56:50;;;;;;;14.38;6.63;;;;;;;26.92;29.87;101828.88;5092361;28;20024;-62
2022/05/15 08:59:44;;;;;;;18.90;7.53;;;;;;;27.04;30.02;101821.16;5092250;28;20035;-62
2022/05/15 09:02:11;;;;;;;17.23;6.70;;;;;;;27.10;29.73;101819.09;5095710;28;20028;-62
2022/05/15 09:04:36;;;;;;;15.75;6.30;;;;;;;27.18;29.72;101825.06;5095585;28;20373;-62
2022/05/15 09:07:29;;;;;;;14.27;6.28;;;;;;;27.22;29.46;101823.13;5095854;28;20119;-61
2022/05/15 09:10:20;;;;;;;14.93;6.35;;;;;;;27.65;28.82;101822.09;5095549;28;20551;-62
2022/05/15 09:12:56;;;;;;;20.05;6.50;;;;;;;27.84;29.58;101824.91;5095459;28;20481;-62
2022/05/15 09:15:26;;;;;;;17.63;6.68;;;;;;;27.86;27.33;101816.69;5095571;28;20038;-63
2022/05/15 09:18:03;;;;;;;16.23;6.10;;;;;;;27.82;27.58;101818.66;5077339;28;20073;-62
2022/05/15 09:20:52;;;;;;;15.68;5.82;;;;;;;28.11;26.97;101821.84;5095497;28;20031;-62
2022/05/15 09:23:25;;;;;;;21.05;6.65;;;;;;;28.06;27.13;101823.91;5095403;28;20032;-62
2022/05/15 09:25:56;;;;;;;17.77;5.72;;;;;;;28.23;26.19;101826.72;5095605;28;20419;-62
2022/05/15 09:28:26;;;;;;;15.88;5.55;;;;;;;28.15;26.81;101832.50;5095304;28;20028;-62
2022/05/15 09:30:53;;;;;;;14.40;5.85;;;;;;;28.21;27.07;101821.31;5095398;28;20027;-62
2022/05/15 09:33:44;;;;;;;14.95;5.53;;;;;;;28.09;27.28;101821.03;5095189;28;20107;-62
2022/05/15 09:36:19;;;;;;;16.27;4.78;;;;;;;27.85;26.26;101823.94;5095150;28;20046;-62
2022/05/15 09:38:45;;;;;;;13.27;5.28;;;;;;;27.73;23.83;101820.91;5095160;28;20035;-62
2022/05/15 09:44:01;;;;;;;14.50;4.90;;;;;;;27.97;24.39;101816.19;5095298;28;20055;-62
2022/05/15 09:46:28;;;;;;;14.45;4.90;;;;;;;28.07;24.32;101814.78;5095008;28;20474;-62
2022/05/15 09:49:19;;;;;;;12.13;4.75;;;;;;;28.19;24.28;101804.22;5094725;28;20028;-62
2022/05/15 09:51:50;;;;;;;12.57;4.40;;;;;;;28.32;21.23;101806.38;5094875;28;20035;-61
2022/05/15 09:54:36;;;;;;;14.07;4.65;;;;;;;28.32;22.51;101796.38;5094776;28;20096;-62
2022/05/15 09:57:25;;;;;;;9.75;4.07;;;;;;;28.49;21.79;101798.28;5094612;28;20036;-62
2022/05/15 09:59:57;;;;;;;11.38;5.05;;;;;;;28.55;23.09;101795.25;5094776;28;20028;-62
2022/05/15 10:02:26;;;;;;;16.70;5.07;;;;;;;28.58;22.42;101796.97;5094927;28;20039;-62
2022/05/15 10:04:53;;;;;;;12.80;4.43;;;;;;;28.63;22.17;101793.03;5094627;28;20020;-62
2022/05/15 10:07:59;;;;;;;10.25;4.45;;;;;;;28.88;22.32;101792.69;5094471;28;20030;-61
2022/05/15 10:10:41;;;;;;;10.32;4.07;;;;;;;29.15;21.28;101793.13;4994199;28;20054;-62
2022/05/15 10:13:24;;;;;;;16.10;4.90;;;;;;;29.15;22.43;101794.97;4995654;28;20073;-62
2022/05/15 10:15:52;;;;;;;12.90;4.43;;;;;;;29.09;22.01;101793.47;4992886;28;20084;-62
2022/05/15 10:18:27;;;;;;;14.00;4.90;;;;;;;29.01;21.47;101797.53;4992907;28;20046;-62
2022/05/15 10:20:54;;;;;;;14.07;4.32;;;;;;;29.02;21.05;101783.84;4992565;28;20439;-62
2022/05/15 10:23:29;;;;;;;13.00;4.55;;;;;;;29.31;22.43;101790.50;4992570;28;20034;-62
2022/05/15 10:25:59;;;;;;;14.73;4.40;;;;;;;29.16;21.05;101774.97;4992761;28;20031;-62
2022/05/15 10:28:27;;;;;;;11.20;4.22;;;;;;;29.33;21.04;101779.50;4992203;28;20121;-63
2022/05/15 10:31:16;;;;;;;11.30;4.07;;;;;;;29.45;20.78;101768.84;4992437;28;20031;-62
2022/05/15 10:33:46;;;;;;;13.40;3.95;;;;;;;29.86;20.34;101768.47;4992234;28;20064;-62
2022/05/15 10:36:29;;;;;;;10.90;4.47;;;;;;;30.13;20.41;101779.66;4992470;28;20096;-62
2022/05/15 10:39:32;;;;;;;12.88;4.20;;;;;;;30.11;20.92;101776.16;4992277;28;20038;-63
2022/05/15 10:42:13;;;;;;;12.85;4.50;;;;;;;30.16;19.76;101767.75;4992413;28;20421;-62
2022/05/15 10:45:05;;;;;;;13.38;4.00;;;;;;;30.38;20.51;101757.38;4992018;28;20030;-62
2022/05/15 10:47:40;;;;;;;12.20;4.35;;;;;;;30.44;19.82;101757.00;5062180;28;20036;-62
2022/05/15 10:50:30;;;;;;;12.65;4.25;;;;;;;30.62;19.18;101745.97;5073346;28;20444;-62
2022/05/15 10:52:58;;;;;;;12.70;4.15;;;;;;;30.60;18.88;101743.34;5073552;28;20038;-63
2022/05/15 10:58:33;;;;;;;12.43;4.00;;;;;;;29.84;20.51;101748.59;5073652;28;20067;-62
2022/05/15 11:01:14;;;;;;;9.90;3.92;;;;;;;29.79;19.98;101744.38;5073179;28;20074;-62
2022/05/15 11:04:12;;;;;;;11.68;3.80;;;;;;;30.01;19.99;101755.81;5073375;28;20078;-62
2022/05/15 11:07:00;;;;;;;14.90;3.88;;;;;;;30.29;19.82;101752.44;5073270;28;20111;-62
2022/05/15 11:09:28;;;;;;;13.18;4.18;;;;;;;30.40;19.07;101749.97;5077161;28;20055;-62
2022/05/15 11:12:19;;;;;;;15.88;4.40;;;;;;;30.34;19.78;101746.72;5093560;28;20040;-62
2022/05/15 11:15:12;;;;;;;12.67;4.13;;;;;;;30.44;20.23;101745.22;5093104;28;20421;-62
2022/05/15 11:17:46;;;;;;;10.60;3.83;;;;;;;30.48;18.90;101744.06;5093253;28;20028;-62
2022/05/15 11:20:17;;;;;;;10.63;3.60;;;;;;;30.76;17.36;101739.75;5093378;28;20042;-61
2022/05/15 11:22:49;;;;;;;10.05;3.28;;;;;;;30.89;18.11;101740.78;5092796;28;20027;-62
2022/05/15 11:25:29;;;;;;;10.40;3.80;;;;;;;30.56;19.58;101735.44;5093114;28;20062;-62
2022/05/15 11:28:03;;;;;;;8.45;3.63;;;;;;;30.69;18.90;101737.34;5092926;28;20042;-62
2022/05/15 11:30:35;;;;;;;12.05;3.90;;;;;;;30.73;19.44;101729.00;5093092;28;20026;-62
2022/05/15 11:33:05;;;;;;;10.90;3.70;;;;;;;30.65;18.82;101724.84;5093074;28;20055;-62
2022/05/15 11:35:34;;;;;;;13.23;3.97;;;;;;;30.90;17.15;101702.44;5093162;28;20417;-63
2022/05/15 11:38:05;;;;;;;13.63;3.90;;;;;;;31.05;19.34;101700.66;5092908;28;20143;-62
2022/05/15 11:40:44;;;;;;;11.23;3.90;;;;;;;31.13;17.74;101698.28;5093095;28;20021;-62
2022/05/15 11:43:30;;;;;;;18.88;3.90;;;;;;;31.37;18.59;101695.91;5092788;28;20024;-62
2022/05/15 11:45:58;;;;;;;12.32;3.80;;;;;;;31.46;17.57;101694.44;5092845;28;20436;-62